Time;durP1;ratioP1;P1;durP2;ratioP2;P2;SDS_P1;SDS_P2;PMS_P1;PMS_P2;Temp;Humidity;BMP_temperature;BMP_pressure;BME280_temperature;BME280_humidity;BME280_pressure;Samples;Min_cycle;Max_cycle;Signal;HPM_P1;HPM_P2
2022/03/09 00:01:13;;;;;;;;;46.67;40.33;;;;;7.69;59.30;99728.69;5062804;28;45416;-74
2022/03/09 00:03:38;;;;;;;;;50.33;40.67;;;;;7.70;59.61;99719.91;5035559;28;45462;-74
2022/03/09 00:06:04;;;;;;;;;47.00;39.67;;;;;7.72;59.29;99731.22;5072043;28;45447;-74
2022/03/09 00:08:29;;;;;;;;;48.67;39.33;;;;;7.77;58.92;99727.66;5064328;28;45491;-74
2022/03/09 00:10:55;;;;;;;;;56.33;44.67;;;;;7.79;58.96;99731.13;5062699;28;45681;-74
2022/03/09 00:13:20;;;;;;;;;50.00;41.67;;;;;7.80;58.68;99731.09;5072322;28;45428;-74
2022/03/09 00:15:45;;;;;;;;;52.00;41.33;;;;;7.83;58.67;99735.44;5051181;28;45335;-74
2022/03/09 00:18:11;;;;;;;;;49.33;41.67;;;;;7.86;58.43;99736.25;5051358;28;45294;-74
2022/03/09 00:20:36;;;;;;;;;50.00;42.00;;;;;7.88;58.84;99739.66;5069766;28;46070;-74
2022/03/09 00:23:02;;;;;;;;;51.67;43.00;;;;;7.92;58.70;99745.75;5061895;28;45464;-74
2022/03/09 00:25:27;;;;;;;;;49.67;40.00;;;;;7.94;58.32;99739.56;5056921;28;45286;-74
2022/03/09 00:27:52;;;;;;;;;51.00;40.00;;;;;7.96;58.53;99736.91;5056461;28;45481;-74
2022/03/09 00:30:18;;;;;;;;;58.00;45.00;;;;;7.97;58.42;99733.41;5057313;28;46408;-74
2022/03/09 00:32:43;;;;;;;;;49.33;41.00;;;;;7.97;57.98;99744.75;5048345;28;45468;-74
2022/03/09 00:35:09;;;;;;;;;49.67;41.33;;;;;7.98;58.12;99751.75;5057751;28;45374;-74
2022/03/09 00:37:35;;;;;;;;;54.33;43.33;;;;;7.99;57.85;99750.84;5051908;28;45583;-74
2022/03/09 00:40:01;;;;;;;;;53.33;43.33;;;;;8.00;57.83;99756.97;5038684;28;48100;-74
2022/03/09 00:42:26;;;;;;;;;48.33;42.33;;;;;8.02;57.79;99755.19;5055312;28;45489;-74
2022/03/09 00:44:52;;;;;;;;;51.00;41.33;;;;;8.04;57.74;99756.84;5062740;28;45406;-74
2022/03/09 00:47:17;;;;;;;;;62.00;46.67;;;;;8.06;57.72;99754.19;5051880;28;45460;-74
2022/03/09 00:49:42;;;;;;;;;53.67;40.67;;;;;8.06;57.49;99757.69;5056979;28;46306;-74
2022/03/09 00:52:08;;;;;;;;;55.67;44.00;;;;;8.06;57.77;99765.56;5051921;28;45597;-74
2022/03/09 00:54:34;;;;;;;;;50.33;40.67;;;;;8.07;57.37;99767.31;5056159;28;45552;-74
2022/03/09 00:56:59;;;;;;;;;47.33;40.00;;;;;8.09;57.21;99772.53;5055297;28;45436;-74
2022/03/09 00:59:25;;;;;;;;;52.33;41.00;;;;;8.09;57.54;99771.66;5057132;28;46161;-77
2022/03/09 01:01:50;;;;;;;;;47.33;38.33;;;;;8.07;57.70;99764.69;5050511;28;45449;-76
2022/03/09 01:04:16;;;;;;;;;54.33;43.67;;;;;8.07;57.87;99767.31;5059884;28;45401;-77
2022/03/09 01:06:41;;;;;;;;;56.67;44.67;;;;;8.06;58.27;99769.97;5042677;28;45515;-76
2022/03/09 01:09:07;;;;;;;;;53.00;42.33;;;;;8.06;58.27;99769.97;5068161;28;46102;-74
2022/03/09 01:11:32;;;;;;;;;42.00;37.00;;;;;8.06;57.68;99767.34;5054807;28;45408;-73
2022/03/09 01:13:58;;;;;;;;;46.33;39.00;;;;;8.05;57.91;99769.09;5054353;28;45437;-74
2022/03/09 01:16:23;;;;;;;;;44.33;36.67;;;;;8.04;57.23;99777.84;5065660;28;45238;-74
2022/03/09 01:18:49;;;;;;;;;45.33;38.67;;;;;8.02;56.87;99769.19;5059091;28;45407;-74
2022/03/09 01:21:17;;;;;;;;;51.00;40.67;;;;;8.01;57.12;99772.69;5052873;28;45491;-77
2022/03/09 01:23:45;;;;;;;;;53.33;41.33;;;;;8.02;57.12;99779.69;5042794;28;45496;-77
2022/03/09 01:26:10;;;;;;;;;53.67;42.67;;;;;8.02;57.00;99778.81;5067495;28;45450;-73
2022/03/09 01:28:35;;;;;;;;;53.00;43.33;;;;;8.01;57.31;99777.94;5060462;28;46611;-74
2022/03/09 01:31:01;;;;;;;;;45.67;39.33;;;;;7.99;57.54;99776.25;5053067;28;45234;-73
2022/03/09 01:33:26;;;;;;;;;50.00;39.00;;;;;7.97;57.11;99778.91;5047633;28;45299;-74
2022/03/09 01:35:52;;;;;;;;;53.00;43.00;;;;;7.92;56.92;99778.09;5055018;28;45295;-74
2022/03/09 01:38:17;;;;;;;;;52.00;42.67;;;;;7.90;57.02;99777.25;5033583;28;46603;-74
2022/03/09 01:40:42;;;;;;;;;54.00;43.00;;;;;7.88;57.32;99779.06;5054879;28;45379;-74
2022/03/09 01:43:08;;;;;;;;;52.00;40.33;;;;;7.84;57.54;99781.78;5048897;28;45538;-74
2022/03/09 01:45:35;;;;;;;;;52.67;43.33;;;;;7.82;57.68;99786.19;5055596;28;45456;-74
2022/03/09 01:48:00;;;;;;;;;52.00;40.00;;;;;7.79;57.28;99781.84;5030096;28;47906;-74
2022/03/09 01:50:26;;;;;;;;;57.67;45.67;;;;;7.79;57.42;99786.25;5054351;28;45313;-74
2022/03/09 01:52:51;;;;;;;;;56.33;45.67;;;;;7.79;57.57;99779.22;5050377;28;45531;-74
2022/03/09 01:55:17;;;;;;;;;107.75;92.25;;;;;7.78;58.17;99780.13;5037168;28;45521;-74
2022/03/09 01:57:42;;;;;;;;;122.50;103.75;;;;;7.77;57.97;99786.25;5035458;28;47238;-74
2022/03/09 02:00:09;;;;;;;;;161.25;136.25;;;;;7.78;58.00;99785.38;5055019;28;45484;-74
2022/03/09 02:02:34;;;;;;;;;159.50;131.50;;;;;7.79;57.95;99791.50;5054287;28;45500;-74
2022/03/09 02:05:00;;;;;;;;;84.50;66.50;;;;;7.80;58.00;99796.72;5056989;28;45421;-74
2022/03/09 02:10:10;;;;;;;;;61.33;46.67;;;;;7.80;58.64;99794.09;5055652;28;45361;-74
2022/03/09 02:12:37;;;;;;;;;62.33;48.33;;;;;7.80;58.50;99794.09;5053596;28;45428;-74
2022/03/09 02:15:03;;;;;;;;;61.00;46.33;;;;;7.80;58.85;99794.09;5055057;28;45335;-74
2022/03/09 02:17:29;;;;;;;;;62.50;50.25;;;;;7.82;58.83;99791.44;5031910;28;48210;-77
2022/03/09 02:19:56;;;;;;;;;57.67;47.33;;;;;7.85;59.05;99800.13;5055092;28;45195;-78
2022/03/09 02:22:33;;;;;;;;;71.25;54.50;;;;;7.86;58.93;99794.00;5034277;28;45367;-77
2022/03/09 02:24:59;;;;;;;;;68.33;53.00;;;;;7.87;59.05;99795.72;5036965;28;45395;-77
2022/03/09 02:27:25;;;;;;;;;58.33;46.33;;;;;7.88;59.04;99804.44;5045828;28;46749;-74
2022/03/09 02:29:52;;;;;;;;;57.67;47.00;;;;;7.89;59.08;99806.16;5054542;28;45491;-74
2022/03/09 02:32:18;;;;;;;;;58.67;47.00;;;;;7.89;59.37;99801.78;5053809;28;45349;-74
2022/03/09 02:34:44;;;;;;;;;46.67;40.00;;;;;7.90;58.98;99802.66;5036563;28;45780;-74
2022/03/09 02:37:09;;;;;;;;;53.00;43.33;;;;;7.87;58.97;99798.34;5038995;28;46627;-74
2022/03/09 02:39:36;;;;;;;;;51.67;41.67;;;;;7.87;58.89;99800.09;5055058;28;45588;-74
2022/03/09 02:42:01;;;;;;;;;54.33;44.00;;;;;7.85;59.00;99797.50;5049161;28;45623;-74
2022/03/09 02:44:27;;;;;;;;;53.67;43.33;;;;;7.86;59.11;99793.13;5054830;28;45454;-74
2022/03/09 02:46:52;;;;;;;;;56.00;46.00;;;;;7.84;59.08;99789.66;5045789;28;46356;-74
2022/03/09 02:49:18;;;;;;;;;55.67;44.67;;;;;7.82;59.17;99792.31;5044471;28;45610;-74
2022/03/09 02:51:43;;;;;;;;;60.00;48.33;;;;;7.80;59.09;99788.84;5051647;28;45451;-74
2022/03/09 02:54:09;;;;;;;;;59.33;46.67;;;;;7.78;58.93;99789.75;5035546;28;45558;-73
2022/03/09 02:56:34;;;;;;;;;59.67;48.00;;;;;7.75;58.89;99795.06;5034801;28;46158;-74
2022/03/09 02:59:00;;;;;;;;;59.33;46.67;;;;;7.72;58.87;99791.59;5054586;28;45436;-74
2022/03/09 03:01:25;;;;;;;;;62.67;49.00;;;;;7.68;58.86;99791.69;5051737;28;45775;-74
2022/03/09 03:03:51;;;;;;;;;57.33;47.33;;;;;7.65;58.87;99794.38;5048063;28;45357;-74
2022/03/09 03:06:16;;;;;;;;;57.67;46.33;;;;;7.61;58.79;99790.06;5035209;28;47869;-74
2022/03/09 03:08:42;;;;;;;;;58.33;47.00;;;;;7.57;58.94;99786.63;5054506;28;45325;-74
2022/03/09 03:11:09;;;;;;;;;61.00;48.00;;;;;7.54;58.92;99791.06;5052265;28;45410;-74
2022/03/09 03:13:37;;;;;;;;;61.33;48.00;;;;;7.49;59.22;99785.03;5043751;28;45326;-74
2022/03/09 03:16:03;;;;;;;;;57.00;45.33;;;;;7.46;59.31;99782.44;5052570;28;45651;-74
2022/03/09 03:18:28;;;;;;;;;61.67;49.00;;;;;7.43;59.53;99787.75;5046621;28;45501;-75
2022/03/09 03:20:54;;;;;;;;;64.67;50.00;;;;;7.40;59.67;99782.53;5053349;28;45409;-73
2022/03/09 03:23:28;;;;;;;;;58.00;47.00;;;;;7.35;59.50;99780.03;5025880;28;45550;-74
2022/03/09 03:25:55;;;;;;;;;59.00;44.33;;;;;7.33;59.76;99795.78;5039211;28;47347;-74
2022/03/09 03:28:21;;;;;;;;;53.67;43.67;;;;;7.28;59.61;99794.97;5048200;28;45370;-75
2022/03/09 03:30:47;;;;;;;;;61.33;48.33;;;;;7.24;59.60;99806.41;5057747;28;45402;-74
2022/03/09 03:33:13;;;;;;;;;64.33;49.00;;;;;7.18;59.75;99800.41;5056050;28;45462;-74
2022/03/09 03:35:39;;;;;;;;;60.33;50.33;;;;;7.11;59.91;99801.38;5039797;28;47146;-77
2022/03/09 03:38:04;;;;;;;;;61.67;48.67;;;;;7.04;59.69;99805.00;5059192;28;45563;-76
2022/03/09 03:40:30;;;;;;;;;61.33;50.33;;;;;6.98;60.01;99803.31;5056846;28;45386;-76
2022/03/09 03:42:56;;;;;;;;;61.67;48.33;;;;;6.94;60.40;99809.47;5054447;28;45424;-77
2022/03/09 03:45:21;;;;;;;;;64.67;51.33;;;;;6.89;60.34;99809.53;5039050;28;46911;-76
2022/03/09 03:47:47;;;;;;;;;64.00;49.33;;;;;6.85;60.46;99810.50;5055319;28;45382;-77
2022/03/09 03:50:13;;;;;;;;;64.00;49.67;;;;;6.80;60.53;99816.69;5057591;28;45458;-77
2022/03/09 03:52:38;;;;;;;;;55.33;45.33;;;;;6.74;60.40;99817.63;5055812;28;45542;-77
2022/03/09 03:55:04;;;;;;;;;67.67;51.00;;;;;6.68;60.41;99822.09;5039109;28;46482;-76
2022/03/09 03:57:29;;;;;;;;;66.25;53.75;;;;;6.62;60.91;99823.91;5054119;28;45483;-77
2022/03/09 03:59:55;;;;;;;;;67.00;50.00;;;;;6.57;60.61;99819.59;5039134;28;45418;-77
2022/03/09 04:02:20;;;;;;;;;62.33;51.00;;;;;6.52;61.17;99818.81;5055254;28;45436;-77
2022/03/09 04:04:46;;;;;;;;;66.75;52.00;;;;;6.46;61.32;99827.59;5039029;28;46908;-77
2022/03/09 04:07:11;;;;;;;;;60.25;49.75;;;;;6.43;61.11;99822.38;5056686;28;45485;-76
2022/03/09 04:09:37;;;;;;;;;59.67;47.00;;;;;6.37;61.63;99824.22;5057296;28;45555;-77
2022/03/09 04:12:02;;;;;;;;;61.25;46.75;;;;;6.34;61.92;99821.66;5051763;28;45477;-77
2022/03/09 04:14:28;;;;;;;;;69.25;52.00;;;;;6.29;61.72;99819.94;5056678;28;45385;-77
2022/03/09 04:16:53;;;;;;;;;65.00;49.75;;;;;6.28;61.65;99825.19;5055638;28;45484;-77
2022/03/09 04:19:19;;;;;;;;;57.50;44.50;;;;;6.26;61.81;99824.34;5057357;28;45333;-76
2022/03/09 04:21:44;;;;;;;;;71.00;53.25;;;;;6.22;61.81;99828.75;5038491;28;45460;-76
2022/03/09 04:24:10;;;;;;;;;80.00;61.50;;;;;6.17;61.82;99829.69;5053963;28;46282;-76
2022/03/09 04:26:35;;;;;;;;;75.75;58.75;;;;;6.12;61.66;99836.72;5052326;28;45398;-77
2022/03/09 04:29:00;;;;;;;;;74.25;55.00;;;;;6.08;61.73;99837.63;5054874;28;46058;-77
2022/03/09 04:31:26;;;;;;;;;65.50;49.00;;;;;6.04;61.98;99846.38;5053000;28;45523;-77
2022/03/09 04:33:52;;;;;;;;;71.00;54.75;;;;;6.01;61.92;99842.06;5047809;28;45462;-77
2022/03/09 04:36:17;;;;;;;;;58.00;47.00;;;;;5.99;61.64;99853.44;5053832;28;45508;-76
2022/03/09 04:38:43;;;;;;;;;73.50;53.00;;;;;5.93;62.00;99844.75;5048840;28;45415;-77
2022/03/09 04:41:09;;;;;;;;;63.00;51.50;;;;;5.87;62.25;99851.75;5054469;28;45532;-76
2022/03/09 04:43:34;;;;;;;;;67.00;54.00;;;;;5.83;62.44;99850.06;5033504;28;48078;-76
2022/03/09 04:45:59;;;;;;;;;66.25;53.25;;;;;5.79;62.36;99851.84;5056215;28;45437;-78
2022/03/09 04:48:25;;;;;;;;;67.00;52.00;;;;;5.79;62.68;99848.34;5055816;28;45397;-77
2022/03/09 04:50:50;;;;;;;;;64.67;52.67;;;;;5.77;62.57;99847.50;5056677;28;45388;-78
2022/03/09 04:53:16;;;;;;;;;65.75;52.00;;;;;5.73;62.72;99851.88;5051653;28;45844;-78
2022/03/09 04:55:41;;;;;;;;;64.75;50.75;;;;;5.72;62.81;99858.00;5056687;28;45310;-77
2022/03/09 04:58:07;;;;;;;;;64.25;52.50;;;;;5.70;62.68;99854.53;5053005;28;45720;-76
2022/03/09 05:00:32;;;;;;;;;66.25;50.50;;;;;5.68;62.85;99853.69;5056569;28;45378;-77
2022/03/09 05:02:58;;;;;;;;;62.00;50.25;;;;;5.67;62.95;99862.41;5049300;28;46080;-77
2022/03/09 05:05:23;;;;;;;;;69.50;53.00;;;;;5.65;63.27;99864.19;5056382;28;45303;-77
2022/03/09 05:07:49;;;;;;;;;68.25;52.75;;;;;5.64;63.13;99859.81;5054649;28;45290;-77
2022/03/09 05:10:14;;;;;;;;;65.75;54.75;;;;;5.64;62.88;99857.22;5058256;28;45344;-77
2022/03/09 05:12:39;;;;;;;;;66.00;50.75;;;;;5.64;63.34;99861.56;5050199;28;46122;-77
2022/03/09 05:15:06;;;;;;;;;66.75;52.25;;;;;5.65;63.24;99852.84;5056076;28;45378;-77
2022/03/09 05:17:32;;;;;;;;;69.75;51.75;;;;;5.65;63.67;99856.34;5045119;28;45512;-77
2022/03/09 05:19:57;;;;;;;;;62.25;48.50;;;;;5.65;62.77;99856.34;5055668;28;45456;-77
2022/03/09 05:22:23;;;;;;;;;66.00;53.00;;;;;5.64;63.13;99862.44;5044220;28;45476;-76
2022/03/09 05:24:49;;;;;;;;;71.25;53.50;;;;;5.63;63.37;99860.72;5055983;28;45447;-77
2022/03/09 05:27:15;;;;;;;;;60.00;46.25;;;;;5.64;63.15;99869.41;5047151;28;45413;-77
2022/03/09 05:29:40;;;;;;;;;68.00;53.25;;;;;5.61;62.88;99865.94;5037296;28;45470;-77
2022/03/09 05:32:06;;;;;;;;;63.00;48.75;;;;;5.61;63.20;99879.03;5055552;28;45426;-77
2022/03/09 05:34:32;;;;;;;;;58.50;46.50;;;;;5.62;63.12;99874.66;5051656;28;45367;-77
2022/03/09 05:36:57;;;;;;;;;71.25;52.00;;;;;5.63;63.15;99876.41;5030287;28;45387;-77
2022/03/09 05:39:23;;;;;;;;;56.50;48.00;;;;;5.62;63.46;99874.66;5055293;28;45385;-76
2022/03/09 05:41:48;;;;;;;;;63.33;49.67;;;;;5.64;63.09;99885.13;5041638;28;48064;-77
2022/03/09 05:44:14;;;;;;;;;60.67;48.67;;;;;5.64;63.25;99882.50;5037921;28;45346;-77
2022/03/09 05:46:40;;;;;;;;;63.67;49.00;;;;;5.63;63.32;99881.63;5050212;28;45305;-77
2022/03/09 05:49:05;;;;;;;;;59.00;46.00;;;;;5.64;63.08;99883.38;5055226;28;45361;-77
2022/03/09 05:51:31;;;;;;;;;64.33;48.00;;;;;5.65;63.23;99881.63;5032692;28;45620;-77
2022/03/09 05:53:57;;;;;;;;;60.00;48.00;;;;;5.66;63.05;99880.75;5055068;28;45541;-77
2022/03/09 05:56:23;;;;;;;;;51.00;43.33;;;;;5.67;63.31;99885.09;5052533;28;45483;-76
2022/03/09 05:58:49;;;;;;;;;61.75;49.75;;;;;5.68;63.31;99886.84;5033129;28;45646;-77
2022/03/09 06:01:21;;;;;;;;;66.50;49.25;;;;;5.67;63.09;99888.59;5038344;28;45995;-78
2022/03/09 06:03:46;;;;;;;;;58.25;48.00;;;;;5.67;63.07;99899.03;5048578;28;45466;-78
2022/03/09 06:06:12;;;;;;;;;57.50;47.50;;;;;5.67;63.39;99901.66;5036134;28;45422;-78
2022/03/09 06:08:37;;;;;;;;;65.00;50.00;;;;;5.70;63.30;99906.00;5054777;28;45511;-78
2022/03/09 06:11:03;;;;;;;;;58.67;46.67;;;;;5.70;63.29;99900.78;5054070;28;46016;-77
2022/03/09 06:13:28;;;;;;;;;60.00;46.67;;;;;5.74;63.18;99907.69;5047640;28;45428;-75
2022/03/09 06:15:53;;;;;;;;;64.00;49.50;;;;;5.74;63.28;99903.31;5054770;28;45393;-76
2022/03/09 06:18:19;;;;;;;;;62.25;49.50;;;;;5.78;63.19;99910.28;5051918;28;45610;-76
2022/03/09 06:20:44;;;;;;;;;56.00;46.00;;;;;5.80;62.83;99908.53;5054126;28;46104;-76
2022/03/09 06:23:10;;;;;;;;;68.25;51.50;;;;;5.81;63.10;99909.38;5047472;28;45447;-78
2022/03/09 06:25:36;;;;;;;;;67.25;53.50;;;;;5.81;63.24;99915.50;5054738;28;45358;-77
2022/03/09 06:28:02;;;;;;;;;53.50;43.25;;;;;5.83;62.77;99908.50;5027107;28;45308;-69
2022/03/09 06:30:28;;;;;;;;;58.00;47.50;;;;;5.90;63.11;99909.34;5053935;28;46446;-74
2022/03/09 06:32:53;;;;;;;;;63.00;51.75;;;;;5.97;62.73;99907.53;5053931;28;45633;-74
2022/03/09 06:35:19;;;;;;;;;59.75;49.25;;;;;6.04;62.51;99903.97;5054339;28;45787;-74
2022/03/09 06:37:44;;;;;;;;;59.33;44.67;;;;;6.08;62.08;99908.31;5052983;28;45450;-74
2022/03/09 06:40:10;;;;;;;;;58.67;48.00;;;;;6.11;62.08;99913.50;5053835;28;45441;-74
2022/03/09 06:42:36;;;;;;;;;59.33;48.00;;;;;6.11;61.79;99903.91;5042757;28;45667;-74
2022/03/09 06:45:02;;;;;;;;;60.50;49.50;;;;;6.14;61.47;99911.75;5048153;28;45456;-74
2022/03/09 06:47:28;;;;;;;;;59.67;46.00;;;;;6.15;61.38;99915.22;5030678;28;45444;-66
2022/03/09 06:49:53;;;;;;;;;61.67;46.33;;;;;6.17;60.90;99908.22;5035630;28;46698;-66
2022/03/09 06:52:19;;;;;;;;;59.33;42.33;;;;;6.17;61.52;99910.84;5049420;28;45420;-66
2022/03/09 06:54:45;;;;;;;;;61.00;47.33;;;;;6.17;60.99;99914.34;5054001;28;45497;-66
2022/03/09 06:57:11;;;;;;;;;58.67;48.00;;;;;6.20;61.17;99921.28;5050655;28;45441;-67
2022/03/09 06:59:37;;;;;;;;;57.00;45.67;;;;;6.23;61.23;99926.47;5055803;28;46142;-66
2022/03/09 07:02:03;;;;;;;;;57.00;46.33;;;;;6.27;61.12;99922.94;5025261;28;45428;-67
2022/03/09 07:04:29;;;;;;;;;62.00;50.33;;;;;6.30;60.91;99921.19;5057050;28;45535;-74
2022/03/09 07:06:54;;;;;;;;;64.00;49.33;;;;;6.35;61.05;99934.25;5056452;28;45363;-72
2022/03/09 07:09:20;;;;;;;;;60.67;47.00;;;;;6.38;60.70;99934.19;5057067;28;45527;-75
2022/03/09 07:11:45;;;;;;;;;66.75;52.75;;;;;6.41;60.47;99934.16;5054869;28;45480;-74
2022/03/09 07:14:11;;;;;;;;;61.25;46.50;;;;;6.43;60.53;99945.47;5052461;28;45542;-75
2022/03/09 07:16:37;;;;;;;;;67.00;51.25;;;;;6.45;60.38;99942.84;5056570;28;45465;-74
2022/03/09 07:19:03;;;;;;;;;61.67;46.33;;;;;6.46;60.40;99947.22;5029313;28;47604;-75
2022/03/09 07:21:28;;;;;;;;;62.33;47.67;;;;;6.45;60.22;99946.34;5036201;28;45494;-75
2022/03/09 07:23:54;;;;;;;;;55.67;44.67;;;;;6.46;60.10;99948.06;5056877;28;45500;-75
2022/03/09 07:26:19;;;;;;;;;61.67;49.00;;;;;6.47;60.11;99952.44;5038132;28;45360;-74
2022/03/09 07:28:45;;;;;;;;;59.00;46.00;;;;;6.48;59.86;99950.69;5055131;28;47731;-76
2022/03/09 07:31:10;;;;;;;;;61.33;48.00;;;;;6.48;60.21;99945.44;5054680;28;45345;-75
2022/03/09 07:33:36;;;;;;;;;71.25;52.75;;;;;6.47;60.10;99949.81;5050557;28;45359;-73
2022/03/09 07:36:02;;;;;;;;;62.00;49.25;;;;;6.47;60.16;99952.44;5055689;28;45370;-74
2022/03/09 07:38:28;;;;;;;;;58.00;48.25;;;;;6.48;59.93;99954.16;5031916;28;46755;-61
2022/03/09 07:40:54;;;;;;;;;63.25;50.25;;;;;6.50;60.25;99957.66;5051499;28;45481;-67
2022/03/09 07:43:20;;;;;;;;;61.75;49.50;;;;;6.52;60.14;99950.66;5052311;28;45471;-66
2022/03/09 07:45:45;;;;;;;;;64.25;51.25;;;;;6.56;59.69;99954.94;5056780;28;45407;-66
2022/03/09 07:48:11;;;;;;;;;63.50;48.00;;;;;6.57;59.85;99958.44;5053447;28;45544;-66
2022/03/09 07:50:37;;;;;;;;;67.50;51.00;;;;;6.61;59.45;99962.75;5055851;28;45436;-65
2022/03/09 07:53:07;;;;;;;;;64.25;51.00;;;;;6.67;59.34;99959.22;5054119;28;45469;-66
2022/03/09 07:55:33;;;;;;;;;58.00;45.67;;;;;6.67;59.33;99960.09;5042614;28;45593;-65
2022/03/09 07:57:59;;;;;;;;;56.33;48.00;;;;;6.70;59.13;99965.31;5046105;28;45557;-67
2022/03/09 08:00:24;;;;;;;;;58.50;46.75;;;;;6.73;58.84;99964.38;5055910;28;45309;-65
2022/03/09 08:02:50;;;;;;;;;54.00;45.00;;;;;6.76;58.22;99962.59;5053687;28;45419;-66
2022/03/09 08:05:16;;;;;;;;;61.00;47.67;;;;;6.81;58.11;99962.56;5056890;28;45264;-66
2022/03/09 08:07:43;;;;;;;;;58.00;44.67;;;;;6.85;57.82;99962.50;5049999;28;46429;-66
2022/03/09 08:10:09;;;;;;;;;56.00;46.33;;;;;6.93;57.73;99958.03;5056190;28;45472;-66
2022/03/09 08:12:35;;;;;;;;;61.67;47.67;;;;;6.99;57.47;99964.97;5053512;28;45550;-66
2022/03/09 08:15:01;;;;;;;;;59.00;45.33;;;;;7.04;57.04;99955.25;5056551;28;45417;-66
2022/03/09 08:17:29;;;;;;;;;53.00;43.00;;;;;7.12;56.83;99960.41;5044459;28;45417;-66
2022/03/09 08:19:55;;;;;;;;;52.33;44.33;;;;;7.14;56.63;99959.53;5056351;28;45459;-67
2022/03/09 08:22:21;;;;;;;;;37.00;30.33;;;;;7.18;56.34;99961.22;5034424;28;45482;-66
2022/03/09 08:24:47;;;;;;;;;56.67;44.00;;;;;7.23;56.05;99953.28;5056356;28;45447;-66
2022/03/09 08:27:13;;;;;;;;;58.00;45.67;;;;;7.27;56.32;99962.84;5054711;28;47503;-66
2022/03/09 08:29:38;;;;;;;;;61.33;47.00;;;;;7.31;56.11;99957.53;5056218;28;45464;-66
2022/03/09 08:32:04;;;;;;;;;56.00;39.33;;;;;7.35;56.16;99954.00;5051523;28;45497;-66
2022/03/09 08:34:29;;;;;;;;;56.33;45.00;;;;;7.43;55.90;99955.63;5056304;28;45523;-67
2022/03/09 08:36:54;;;;;;;;;58.67;45.33;;;;;7.47;56.00;99955.56;5047634;28;45354;-66
2022/03/09 08:39:20;;;;;;;;;59.33;47.00;;;;;7.52;55.91;99945.88;5038414;28;45201;-67
2022/03/09 08:41:45;;;;;;;;;60.33;47.00;;;;;7.57;55.71;99941.41;5049612;28;45473;-67
2022/03/09 08:44:11;;;;;;;;;62.67;46.33;;;;;7.66;56.01;99946.56;5056173;28;45421;-67
2022/03/09 08:46:36;;;;;;;;;65.33;51.00;;;;;7.73;55.58;99947.31;5050944;28;46382;-66
2022/03/09 08:49:02;;;;;;;;;63.00;49.67;;;;;7.81;55.23;99937.56;5055922;28;45456;-66
2022/03/09 08:51:27;;;;;;;;;57.33;45.67;;;;;7.87;55.05;99942.72;5053674;28;45422;-66
2022/03/09 08:53:53;;;;;;;;;58.67;47.00;;;;;7.93;54.81;99939.13;5046561;28;45567;-66
2022/03/09 08:56:20;;;;;;;;;55.67;43.33;;;;;8.00;54.35;99935.50;5034695;28;46584;-66
2022/03/09 08:58:46;;;;;;;;;50.67;39.00;;;;;8.05;54.06;99934.53;5046981;28;45231;-66
2022/03/09 09:01:11;;;;;;;;;59.00;44.33;;;;;8.13;54.11;99923.03;5054481;28;45441;-67
2022/03/09 09:03:37;;;;;;;;;52.33;43.00;;;;;8.22;53.85;99920.22;5055505;28;45568;-66
2022/03/09 09:06:02;;;;;;;;;57.33;46.67;;;;;8.28;53.68;99920.13;5055483;28;46400;-66
2022/03/09 09:08:28;;;;;;;;;58.33;41.00;;;;;8.35;53.15;99916.53;5045684;28;45440;-67
2022/03/09 09:10:53;;;;;;;;;51.67;42.00;;;;;8.40;53.06;99915.53;5055263;28;45462;-67
2022/03/09 09:13:19;;;;;;;;;52.33;42.67;;;;;8.47;53.04;99907.56;5045146;28;45472;-68
2022/03/09 09:15:45;;;;;;;;;51.33;40.67;;;;;8.54;52.71;99902.16;5053991;28;46761;-66
2022/03/09 09:18:11;;;;;;;;;43.67;35.67;;;;;8.64;52.96;99897.59;5044933;28;45487;-66
2022/03/09 09:20:37;;;;;;;;;48.00;39.33;;;;;8.69;52.15;99895.75;5037454;28;45434;-66
2022/03/09 09:23:03;;;;;;;;;57.33;44.33;;;;;8.74;52.01;99894.72;5027772;28;45603;-67
2022/03/09 09:25:28;;;;;;;;;52.00;41.67;;;;;8.85;51.70;99893.66;5055352;28;46613;-67
2022/03/09 09:27:56;;;;;;;;;56.00;42.67;;;;;8.93;51.79;99895.22;5045874;28;45513;-66
2022/03/09 09:30:22;;;;;;;;;50.33;40.33;;;;;9.00;50.99;99891.56;5037253;28;45392;-67
2022/03/09 09:32:49;;;;;;;;;48.67;40.00;;;;;9.07;51.11;99889.66;5049295;28;45449;-67
2022/03/09 09:35:15;;;;;;;;;46.67;37.00;;;;;9.13;50.50;99889.53;5055044;28;45496;-67
2022/03/09 09:37:43;;;;;;;;;42.67;35.67;;;;;9.19;50.30;99884.16;5052490;28;45326;-67
2022/03/09 09:40:10;;;;;;;;;48.00;40.00;;;;;9.25;50.41;99878.72;5055425;28;45180;-67
2022/03/09 09:42:35;;;;;;;;;50.00;40.00;;;;;9.31;51.04;99873.34;5054859;28;45529;-67
2022/03/09 09:45:02;;;;;;;;;46.33;40.00;;;;;9.38;50.51;99871.44;5036941;28;47494;-65
2022/03/09 09:47:28;;;;;;;;;54.67;41.33;;;;;9.47;50.10;99875.63;5054523;28;45442;-67
2022/03/09 09:49:55;;;;;;;;;42.00;35.33;;;;;9.54;49.84;99872.81;5055136;28;45485;-67
2022/03/09 09:52:24;;;;;;;;;44.67;39.00;;;;;9.61;50.13;99868.25;5034509;28;45695;-67
2022/03/09 09:54:52;;;;;;;;;52.33;42.67;;;;;9.68;50.30;99868.09;5054439;28;45411;-66
2022/03/09 09:57:17;;;;;;;;;53.00;40.00;;;;;9.74;50.03;99865.28;5052837;28;45544;-67
2022/03/09 09:59:44;;;;;;;;;45.33;36.33;;;;;9.81;49.94;99855.47;5054592;28;45469;-67
2022/03/09 10:02:10;;;;;;;;;50.00;39.33;;;;;9.88;49.90;99859.69;5035141;28;45621;-67
2022/03/09 10:04:37;;;;;;;;;51.67;40.33;;;;;9.93;49.48;99860.41;5036243;28;46727;-67
2022/03/09 10:07:03;;;;;;;;;50.67;41.33;;;;;10.00;49.31;99859.38;5046674;28;45397;-66
2022/03/09 10:09:36;;;;;;;;;50.33;42.00;;;;;10.09;49.53;99853.84;5050881;28;45484;-66
2022/03/09 10:12:04;;;;;;;;;48.67;40.67;;;;;10.17;49.14;99851.00;5046740;28;45454;-67
2022/03/09 10:15:05;;;;;;;;;49.67;40.33;;;;;10.24;49.22;99855.22;5051378;28;45461;-66
2022/03/09 10:17:30;;;;;;;;;54.33;42.33;;;;;10.30;49.17;99854.22;4952926;28;45583;-67
2022/03/09 10:20:06;;;;;;;;;46.67;37.67;;;;;10.37;48.94;99847.88;5033383;28;45900;-67
2022/03/09 10:22:35;;;;;;;;;51.33;39.00;;;;;10.46;49.33;99839.69;5053496;28;45358;-67
2022/03/09 10:25:17;;;;;;;;;49.00;39.00;;;;;10.55;49.23;99835.97;5054174;28;46000;-67
2022/03/09 10:27:48;;;;;;;;;54.33;44.33;;;;;10.63;49.07;99826.91;5045277;28;45255;-67
2022/03/09 10:30:19;;;;;;;;;51.00;40.00;;;;;10.71;49.01;99830.19;5054298;28;45382;-67
2022/03/09 10:32:57;;;;;;;;;54.33;42.67;;;;;10.81;49.12;99834.28;5045065;28;45434;-67
2022/03/09 10:35:32;;;;;;;;;47.33;38.67;;;;;10.90;49.30;99835.75;5053453;28;45458;-66
2022/03/09 10:38:00;;;;;;;;;53.33;40.67;;;;;10.96;48.99;99834.72;5050664;28;45444;-66
2022/03/09 10:40:27;;;;;;;;;48.33;39.00;;;;;11.04;49.53;99840.66;5049693;28;45424;-67
2022/03/09 10:43:16;;;;;;;;;52.00;41.33;;;;;11.12;48.55;99830.72;5049671;28;45429;-66
2022/03/09 10:46:13;;;;;;;;;46.67;34.33;;;;;11.13;48.83;99832.44;5035407;28;48092;-67
2022/03/09 10:48:58;;;;;;;;;50.67;37.33;;;;;11.21;48.65;99821.66;5053208;28;45390;-67
2022/03/09 10:51:38;;;;;;;;;49.33;37.00;;;;;11.26;48.50;99822.34;5053738;28;45430;-67
2022/03/09 10:54:03;;;;;;;;;49.67;40.33;;;;;11.28;48.89;99821.41;5034973;28;45382;-67
2022/03/09 10:56:29;;;;;;;;;47.67;39.00;;;;;11.31;48.95;99816.03;5034371;28;47851;-67
2022/03/09 10:58:54;;;;;;;;;42.67;37.33;;;;;11.33;48.64;99815.97;5035178;28;45509;-67
2022/03/09 11:01:23;;;;;;;;;48.67;36.00;;;;;11.36;48.12;99816.75;5052230;28;45600;-74
2022/03/09 11:03:48;;;;;;;;;37.00;34.00;;;;;11.43;47.81;99814.75;5035035;28;45443;-75
2022/03/09 11:06:14;;;;;;;;;42.00;34.00;;;;;11.48;47.94;99813.72;5051408;28;46088;-75
2022/03/09 11:08:41;;;;;;;;;37.67;34.33;;;;;11.53;46.82;99809.16;5042540;28;45413;-75
2022/03/09 11:11:08;;;;;;;;;46.00;37.33;;;;;11.57;47.21;99801.97;5034772;28;45371;-74
2022/03/09 11:13:38;;;;;;;;;42.00;34.67;;;;;11.62;46.79;99797.41;5034712;28;45500;-74
2022/03/09 11:16:05;;;;;;;;;46.67;35.33;;;;;11.70;47.42;99792.75;5053395;28;45666;-75
2022/03/09 11:18:32;;;;;;;;;44.00;37.00;;;;;11.73;46.18;99792.59;5051016;28;45352;-75
2022/03/09 11:21:03;;;;;;;;;40.00;34.33;;;;;11.76;46.23;99795.19;5053488;28;45384;-75
2022/03/09 11:23:30;;;;;;;;;45.67;37.00;;;;;11.78;46.46;99795.13;5031277;28;45474;-75